sensor_id;sensor_type;location;lat;lon;timestamp;P1;durP1;ratioP1;P2;durP2;ratioP2
37657;SDS011;23500;53.268;8.308;2023-04-25T00:00:11;8.73;;;4.55;;
37657;SDS011;23500;53.268;8.308;2023-04-25T00:02:38;6.88;;;4.80;;
37657;SDS011;23500;53.268;8.308;2023-04-25T00:05:03;6.25;;;4.88;;
37657;SDS011;23500;53.268;8.308;2023-04-25T00:07:30;5.13;;;4.63;;
37657;SDS011;23500;53.268;8.308;2023-04-25T00:09:56;5.63;;;4.60;;
37657;SDS011;23500;53.268;8.308;2023-04-25T00:12:21;6.32;;;4.97;;
37657;SDS011;23500;53.268;8.308;2023-04-25T00:14:48;5.85;;;4.80;;
37657;SDS011;23500;53.268;8.308;2023-04-25T00:17:14;6.50;;;4.78;;
37657;SDS011;23500;53.268;8.308;2023-04-25T00:19:44;5.78;;;4.28;;
37657;SDS011;23500;53.268;8.308;2023-04-25T00:22:11;6.38;;;4.70;;
37657;SDS011;23500;53.268;8.308;2023-04-25T00:24:37;5.50;;;4.50;;
37657;SDS011;23500;53.268;8.308;2023-04-25T00:27:03;7.90;;;4.55;;
37657;SDS011;23500;53.268;8.308;2023-04-25T00:29:28;5.93;;;4.70;;
37657;SDS011;23500;53.268;8.308;2023-04-25T00:31:54;7.35;;;4.57;;
37657;SDS011;23500;53.268;8.308;2023-04-25T00:34:19;5.55;;;4.70;;
37657;SDS011;23500;53.268;8.308;2023-04-25T00:36:45;4.95;;;4.45;;
37657;SDS011;23500;53.268;8.308;2023-04-25T00:39:11;4.63;;;4.15;;
37657;SDS011;23500;53.268;8.308;2023-04-25T00:41:37;4.93;;;4.40;;
37657;SDS011;23500;53.268;8.308;2023-04-25T00:44:04;6.00;;;4.75;;
37657;SDS011;23500;53.268;8.308;2023-04-25T00:46:32;6.22;;;4.63;;
37657;SDS011;23500;53.268;8.308;2023-04-25T00:48:57;7.18;;;4.50;;
37657;SDS011;23500;53.268;8.308;2023-04-25T00:51:23;5.50;;;4.60;;
37657;SDS011;23500;53.268;8.308;2023-04-25T00:53:51;6.28;;;4.45;;
37657;SDS011;23500;53.268;8.308;2023-04-25T00:56:17;5.78;;;4.20;;
37657;SDS011;23500;53.268;8.308;2023-04-25T00:58:43;6.03;;;4.32;;
37657;SDS011;23500;53.268;8.308;2023-04-25T01:01:09;5.20;;;4.50;;
37657;SDS011;23500;53.268;8.308;2023-04-25T01:03:37;4.68;;;4.15;;
37657;SDS011;23500;53.268;8.308;2023-04-25T01:06:10;6.10;;;4.50;;
37657;SDS011;23500;53.268;8.308;2023-04-25T01:08:39;5.93;;;4.20;;
37657;SDS011;23500;53.268;8.308;2023-04-25T01:11:05;5.82;;;4.30;;
37657;SDS011;23500;53.268;8.308;2023-04-25T01:13:31;6.55;;;4.47;;
37657;SDS011;23500;53.268;8.308;2023-04-25T01:15:58;6.28;;;4.38;;
37657;SDS011;23500;53.268;8.308;2023-04-25T01:18:25;4.80;;;4.40;;
37657;SDS011;23500;53.268;8.308;2023-04-25T01:20:51;5.93;;;4.30;;
37657;SDS011;23500;53.268;8.308;2023-04-25T01:23:21;5.07;;;4.25;;
37657;SDS011;23500;53.268;8.308;2023-04-25T01:25:47;4.47;;;4.00;;
37657;SDS011;23500;53.268;8.308;2023-04-25T01:28:14;4.88;;;4.13;;
37657;SDS011;23500;53.268;8.308;2023-04-25T01:30:40;5.82;;;3.75;;
37657;SDS011;23500;53.268;8.308;2023-04-25T01:33:07;5.80;;;4.18;;
37657;SDS011;23500;53.268;8.308;2023-04-25T01:35:33;5.13;;;4.05;;
37657;SDS011;23500;53.268;8.308;2023-04-25T01:37:59;4.68;;;4.10;;
37657;SDS011;23500;53.268;8.308;2023-04-25T01:40:25;5.80;;;3.78;;
37657;SDS011;23500;53.268;8.308;2023-04-25T01:42:53;5.63;;;4.28;;
37657;SDS011;23500;53.268;8.308;2023-04-25T01:45:19;4.80;;;4.05;;
37657;SDS011;23500;53.268;8.308;2023-04-25T01:47:45;5.28;;;4.10;;
37657;SDS011;23500;53.268;8.308;2023-04-25T01:50:15;5.75;;;3.90;;
37657;SDS011;23500;53.268;8.308;2023-04-25T01:52:43;6.22;;;4.03;;
37657;SDS011;23500;53.268;8.308;2023-04-25T01:55:08;5.55;;;4.13;;
37657;SDS011;23500;53.268;8.308;2023-04-25T01:57:34;4.20;;;3.80;;
37657;SDS011;23500;53.268;8.308;2023-04-25T02:00:01;5.68;;;4.18;;
37657;SDS011;23500;53.268;8.308;2023-04-25T02:02:28;4.50;;;4.00;;
37657;SDS011;23500;53.268;8.308;2023-04-25T02:04:54;4.15;;;3.75;;
37657;SDS011;23500;53.268;8.308;2023-04-25T02:07:21;6.32;;;3.83;;
37657;SDS011;23500;53.268;8.308;2023-04-25T02:09:46;4.18;;;3.70;;
37657;SDS011;23500;53.268;8.308;2023-04-25T02:12:12;5.82;;;3.88;;
37657;SDS011;23500;53.268;8.308;2023-04-25T02:14:38;4.45;;;4.00;;
37657;SDS011;23500;53.268;8.308;2023-04-25T02:17:03;4.22;;;3.80;;
37657;SDS011;23500;53.268;8.308;2023-04-25T02:19:29;4.75;;;3.90;;
37657;SDS011;23500;53.268;8.308;2023-04-25T02:21:54;4.90;;;4.00;;
37657;SDS011;23500;53.268;8.308;2023-04-25T02:24:22;4.60;;;3.78;;
37657;SDS011;23500;53.268;8.308;2023-04-25T02:26:48;4.63;;;3.75;;
37657;SDS011;23500;53.268;8.308;2023-04-25T02:29:14;5.50;;;3.92;;
37657;SDS011;23500;53.268;8.308;2023-04-25T02:31:40;4.30;;;3.90;;
37657;SDS011;23500;53.268;8.308;2023-04-25T02:34:06;4.82;;;3.70;;
37657;SDS011;23500;53.268;8.308;2023-04-25T02:36:32;4.45;;;4.00;;
37657;SDS011;23500;53.268;8.308;2023-04-25T02:38:59;3.97;;;3.47;;
37657;SDS011;23500;53.268;8.308;2023-04-25T02:41:25;5.57;;;3.70;;
37657;SDS011;23500;53.268;8.308;2023-04-25T02:43:51;4.72;;;3.58;;
37657;SDS011;23500;53.268;8.308;2023-04-25T02:46:17;4.13;;;3.72;;
37657;SDS011;23500;53.268;8.308;2023-04-25T02:48:43;4.68;;;3.88;;
37657;SDS011;23500;53.268;8.308;2023-04-25T02:51:08;4.75;;;3.75;;
37657;SDS011;23500;53.268;8.308;2023-04-25T02:53:34;4.18;;;3.78;;
37657;SDS011;23500;53.268;8.308;2023-04-25T02:56:00;4.43;;;3.60;;
37657;SDS011;23500;53.268;8.308;2023-04-25T02:58:26;5.00;;;3.70;;
37657;SDS011;23500;53.268;8.308;2023-04-25T03:00:52;4.80;;;3.80;;
37657;SDS011;23500;53.268;8.308;2023-04-25T03:03:17;4.63;;;3.60;;
37657;SDS011;23500;53.268;8.308;2023-04-25T03:05:46;4.57;;;3.97;;
37657;SDS011;23500;53.268;8.308;2023-04-25T03:08:15;4.75;;;3.83;;
37657;SDS011;23500;53.268;8.308;2023-04-25T03:10:42;4.65;;;3.92;;
37657;SDS011;23500;53.268;8.308;2023-04-25T03:13:08;4.90;;;3.80;;
37657;SDS011;23500;53.268;8.308;2023-04-25T03:15:34;4.22;;;3.72;;
37657;SDS011;23500;53.268;8.308;2023-04-25T03:18:01;4.10;;;3.67;;
37657;SDS011;23500;53.268;8.308;2023-04-25T03:20:27;4.65;;;3.58;;
37657;SDS011;23500;53.268;8.308;2023-04-25T03:22:52;4.30;;;3.58;;
37657;SDS011;23500;53.268;8.308;2023-04-25T03:25:18;5.00;;;3.40;;
37657;SDS011;23500;53.268;8.308;2023-04-25T03:27:44;3.78;;;3.35;;
37657;SDS011;23500;53.268;8.308;2023-04-25T03:30:10;5.60;;;3.65;;
37657;SDS011;23500;53.268;8.308;2023-04-25T03:32:36;4.28;;;3.50;;
37657;SDS011;23500;53.268;8.308;2023-04-25T03:35:02;4.22;;;3.47;;
37657;SDS011;23500;53.268;8.308;2023-04-25T03:37:28;4.03;;;3.47;;
37657;SDS011;23500;53.268;8.308;2023-04-25T03:39:54;4.15;;;3.75;;
37657;SDS011;23500;53.268;8.308;2023-04-25T03:42:19;3.80;;;3.28;;
37657;SDS011;23500;53.268;8.308;2023-04-25T03:44:47;4.35;;;3.35;;
37657;SDS011;23500;53.268;8.308;2023-04-25T03:47:14;4.13;;;3.50;;
37657;SDS011;23500;53.268;8.308;2023-04-25T03:49:39;4.30;;;3.50;;
37657;SDS011;23500;53.268;8.308;2023-04-25T03:52:06;3.72;;;3.40;;
37657;SDS011;23500;53.268;8.308;2023-04-25T03:54:32;5.18;;;4.10;;
37657;SDS011;23500;53.268;8.308;2023-04-25T03:56:57;4.03;;;3.03;;
37657;SDS011;23500;53.268;8.308;2023-04-25T03:59:23;3.58;;;3.28;;
37657;SDS011;23500;53.268;8.308;2023-04-25T04:01:49;3.83;;;3.38;;
37657;SDS011;23500;53.268;8.308;2023-04-25T04:04:15;3.58;;;3.20;;
37657;SDS011;23500;53.268;8.308;2023-04-25T04:06:41;3.60;;;3.28;;
37657;SDS011;23500;53.268;8.308;2023-04-25T04:09:07;5.30;;;3.92;;
37657;SDS011;23500;53.268;8.308;2023-04-25T04:11:36;4.18;;;3.30;;
37657;SDS011;23500;53.268;8.308;2023-04-25T04:14:03;4.25;;;3.38;;
37657;SDS011;23500;53.268;8.308;2023-04-25T04:16:32;3.85;;;3.28;;
37657;SDS011;23500;53.268;8.308;2023-04-25T04:18:58;3.40;;;3.10;;
37657;SDS011;23500;53.268;8.308;2023-04-25T04:21:24;3.60;;;3.00;;
37657;SDS011;23500;53.268;8.308;2023-04-25T04:23:52;3.42;;;2.95;;
37657;SDS011;23500;53.268;8.308;2023-04-25T04:26:19;4.35;;;2.95;;
37657;SDS011;23500;53.268;8.308;2023-04-25T04:28:48;4.15;;;2.90;;
37657;SDS011;23500;53.268;8.308;2023-04-25T04:31:19;2.88;;;2.60;;
37657;SDS011;23500;53.268;8.308;2023-04-25T04:33:46;3.97;;;2.60;;
37657;SDS011;23500;53.268;8.308;2023-04-25T04:36:12;4.32;;;3.00;;
37657;SDS011;23500;53.268;8.308;2023-04-25T04:38:38;2.97;;;2.60;;
37657;SDS011;23500;53.268;8.308;2023-04-25T04:41:05;3.00;;;2.58;;
37657;SDS011;23500;53.268;8.308;2023-04-25T04:43:31;2.60;;;2.40;;
37657;SDS011;23500;53.268;8.308;2023-04-25T04:45:58;4.05;;;2.80;;
37657;SDS011;23500;53.268;8.308;2023-04-25T04:48:28;2.80;;;2.42;;
37657;SDS011;23500;53.268;8.308;2023-04-25T04:50:54;3.45;;;2.58;;
37657;SDS011;23500;53.268;8.308;2023-04-25T04:53:19;4.00;;;2.53;;
37657;SDS011;23500;53.268;8.308;2023-04-25T04:55:45;2.78;;;2.28;;
37657;SDS011;23500;53.268;8.308;2023-04-25T04:58:11;3.30;;;2.08;;
37657;SDS011;23500;53.268;8.308;2023-04-25T05:00:36;3.28;;;2.35;;
37657;SDS011;23500;53.268;8.308;2023-04-25T05:03:03;2.60;;;2.20;;
37657;SDS011;23500;53.268;8.308;2023-04-25T05:05:30;2.70;;;2.38;;
37657;SDS011;23500;53.268;8.308;2023-04-25T05:07:56;3.45;;;2.50;;
37657;SDS011;23500;53.268;8.308;2023-04-25T05:10:21;3.28;;;2.60;;
37657;SDS011;23500;53.268;8.308;2023-04-25T05:12:47;2.90;;;2.30;;
37657;SDS011;23500;53.268;8.308;2023-04-25T05:15:13;3.28;;;2.30;;
37657;SDS011;23500;53.268;8.308;2023-04-25T05:17:39;2.83;;;2.33;;
37657;SDS011;23500;53.268;8.308;2023-04-25T05:20:05;4.95;;;2.65;;
37657;SDS011;23500;53.268;8.308;2023-04-25T05:22:33;26.35;;;7.00;;
37657;SDS011;23500;53.268;8.308;2023-04-25T05:24:59;82.88;;;18.83;;
37657;SDS011;23500;53.268;8.308;2023-04-25T05:27:25;61.83;;;15.10;;
37657;SDS011;23500;53.268;8.308;2023-04-25T05:29:50;81.28;;;18.13;;
37657;SDS011;23500;53.268;8.308;2023-04-25T05:32:17;69.30;;;18.30;;
37657;SDS011;23500;53.268;8.308;2023-04-25T05:34:43;62.50;;;14.35;;
37657;SDS011;23500;53.268;8.308;2023-04-25T05:37:09;43.13;;;12.40;;
37657;SDS011;23500;53.268;8.308;2023-04-25T05:39:35;49.75;;;13.63;;
37657;SDS011;23500;53.268;8.308;2023-04-25T05:42:00;54.63;;;12.80;;
37657;SDS011;23500;53.268;8.308;2023-04-25T05:44:26;51.92;;;13.00;;
37657;SDS011;23500;53.268;8.308;2023-04-25T05:46:53;49.13;;;12.45;;
37657;SDS011;23500;53.268;8.308;2023-04-25T05:49:18;44.58;;;11.93;;
37657;SDS011;23500;53.268;8.308;2023-04-25T05:51:44;37.47;;;10.88;;
37657;SDS011;23500;53.268;8.308;2023-04-25T05:54:10;37.75;;;11.60;;
37657;SDS011;23500;53.268;8.308;2023-04-25T05:56:35;39.83;;;10.40;;
37657;SDS011;23500;53.268;8.308;2023-04-25T05:59:01;32.92;;;9.93;;
37657;SDS011;23500;53.268;8.308;2023-04-25T06:01:27;34.00;;;9.32;;
37657;SDS011;23500;53.268;8.308;2023-04-25T06:03:52;29.08;;;8.23;;
37657;SDS011;23500;53.268;8.308;2023-04-25T06:06:18;25.77;;;8.13;;
37657;SDS011;23500;53.268;8.308;2023-04-25T06:08:44;26.80;;;8.20;;
37657;SDS011;23500;53.268;8.308;2023-04-25T06:11:10;25.35;;;8.05;;
37657;SDS011;23500;53.268;8.308;2023-04-25T06:13:35;24.40;;;7.68;;
37657;SDS011;23500;53.268;8.308;2023-04-25T06:16:01;24.45;;;7.88;;
37657;SDS011;23500;53.268;8.308;2023-04-25T06:18:27;21.58;;;7.32;;
37657;SDS011;23500;53.268;8.308;2023-04-25T06:20:53;18.05;;;6.80;;
37657;SDS011;23500;53.268;8.308;2023-04-25T06:23:18;21.95;;;7.38;;
37657;SDS011;23500;53.268;8.308;2023-04-25T06:25:44;23.48;;;7.38;;
37657;SDS011;23500;53.268;8.308;2023-04-25T06:28:10;20.98;;;6.22;;
37657;SDS011;23500;53.268;8.308;2023-04-25T06:30:35;19.55;;;6.80;;
37657;SDS011;23500;53.268;8.308;2023-04-25T06:33:01;20.75;;;6.72;;
37657;SDS011;23500;53.268;8.308;2023-04-25T06:35:27;17.55;;;6.03;;
37657;SDS011;23500;53.268;8.308;2023-04-25T06:37:52;18.48;;;6.45;;
37657;SDS011;23500;53.268;8.308;2023-04-25T06:40:18;19.38;;;7.00;;
37657;SDS011;23500;53.268;8.308;2023-04-25T06:42:43;17.02;;;6.60;;
37657;SDS011;23500;53.268;8.308;2023-04-25T06:45:09;17.15;;;6.53;;
37657;SDS011;23500;53.268;8.308;2023-04-25T06:47:35;21.90;;;6.35;;
37657;SDS011;23500;53.268;8.308;2023-04-25T06:50:01;15.50;;;6.13;;
37657;SDS011;23500;53.268;8.308;2023-04-25T06:52:27;20.00;;;5.88;;
37657;SDS011;23500;53.268;8.308;2023-04-25T06:54:52;19.35;;;6.35;;
37657;SDS011;23500;53.268;8.308;2023-04-25T06:57:18;15.75;;;6.15;;
37657;SDS011;23500;53.268;8.308;2023-04-25T06:59:44;16.90;;;5.90;;
37657;SDS011;23500;53.268;8.308;2023-04-25T07:02:09;17.65;;;6.10;;
37657;SDS011;23500;53.268;8.308;2023-04-25T07:04:35;18.80;;;6.60;;
37657;SDS011;23500;53.268;8.308;2023-04-25T07:07:01;14.75;;;5.72;;
37657;SDS011;23500;53.268;8.308;2023-04-25T07:09:28;17.77;;;6.10;;
37657;SDS011;23500;53.268;8.308;2023-04-25T07:11:54;14.35;;;5.90;;
37657;SDS011;23500;53.268;8.308;2023-04-25T07:14:21;18.08;;;5.93;;
37657;SDS011;23500;53.268;8.308;2023-04-25T07:16:47;15.32;;;5.97;;
37657;SDS011;23500;53.268;8.308;2023-04-25T07:19:12;16.70;;;5.68;;
37657;SDS011;23500;53.268;8.308;2023-04-25T07:21:38;15.02;;;5.72;;
37657;SDS011;23500;53.268;8.308;2023-04-25T07:24:04;13.57;;;5.20;;
37657;SDS011;23500;53.268;8.308;2023-04-25T07:26:30;14.93;;;5.57;;
37657;SDS011;23500;53.268;8.308;2023-04-25T07:28:56;14.07;;;5.32;;
37657;SDS011;23500;53.268;8.308;2023-04-25T07:31:21;14.10;;;5.00;;
37657;SDS011;23500;53.268;8.308;2023-04-25T07:33:47;13.23;;;5.25;;
37657;SDS011;23500;53.268;8.308;2023-04-25T07:36:13;14.02;;;5.30;;
37657;SDS011;23500;53.268;8.308;2023-04-25T07:38:40;11.45;;;5.22;;
37657;SDS011;23500;53.268;8.308;2023-04-25T07:41:06;11.45;;;5.10;;
37657;SDS011;23500;53.268;8.308;2023-04-25T07:43:31;12.18;;;5.10;;
37657;SDS011;23500;53.268;8.308;2023-04-25T07:45:57;13.40;;;4.70;;
37657;SDS011;23500;53.268;8.308;2023-04-25T07:48:23;11.45;;;5.07;;
37657;SDS011;23500;53.268;8.308;2023-04-25T07:50:48;10.90;;;4.80;;
37657;SDS011;23500;53.268;8.308;2023-04-25T07:53:14;12.50;;;5.03;;
37657;SDS011;23500;53.268;8.308;2023-04-25T07:55:40;10.77;;;4.95;;
37657;SDS011;23500;53.268;8.308;2023-04-25T07:58:06;14.07;;;4.80;;
37657;SDS011;23500;53.268;8.308;2023-04-25T08:00:33;8.52;;;4.28;;
37657;SDS011;23500;53.268;8.308;2023-04-25T08:02:58;10.85;;;4.68;;
37657;SDS011;23500;53.268;8.308;2023-04-25T08:05:24;10.23;;;4.80;;
37657;SDS011;23500;53.268;8.308;2023-04-25T08:07:50;11.95;;;4.35;;
37657;SDS011;23500;53.268;8.308;2023-04-25T08:10:15;11.93;;;5.05;;
37657;SDS011;23500;53.268;8.308;2023-04-25T08:12:41;9.20;;;4.30;;
37657;SDS011;23500;53.268;8.308;2023-04-25T08:15:07;10.30;;;4.28;;
37657;SDS011;23500;53.268;8.308;2023-04-25T08:17:33;12.27;;;4.65;;
37657;SDS011;23500;53.268;8.308;2023-04-25T08:19:59;7.32;;;4.03;;
37657;SDS011;23500;53.268;8.308;2023-04-25T08:22:24;10.02;;;4.47;;
37657;SDS011;23500;53.268;8.308;2023-04-25T08:24:51;7.63;;;4.05;;
37657;SDS011;23500;53.268;8.308;2023-04-25T08:27:20;9.85;;;3.83;;
37657;SDS011;23500;53.268;8.308;2023-04-25T08:29:45;9.23;;;4.20;;
37657;SDS011;23500;53.268;8.308;2023-04-25T08:32:11;8.70;;;4.18;;
37657;SDS011;23500;53.268;8.308;2023-04-25T08:34:37;10.68;;;4.38;;
37657;SDS011;23500;53.268;8.308;2023-04-25T08:37:07;9.00;;;3.75;;
37657;SDS011;23500;53.268;8.308;2023-04-25T08:39:34;10.52;;;4.22;;
37657;SDS011;23500;53.268;8.308;2023-04-25T08:42:05;7.60;;;3.90;;
37657;SDS011;23500;53.268;8.308;2023-04-25T08:44:35;7.32;;;3.55;;
37657;SDS011;23500;53.268;8.308;2023-04-25T08:47:04;8.10;;;3.50;;
37657;SDS011;23500;53.268;8.308;2023-04-25T08:49:31;7.63;;;3.90;;
37657;SDS011;23500;53.268;8.308;2023-04-25T08:52:02;7.13;;;3.45;;
37657;SDS011;23500;53.268;8.308;2023-04-25T08:54:31;8.68;;;3.83;;
37657;SDS011;23500;53.268;8.308;2023-04-25T08:56:57;8.70;;;3.75;;
37657;SDS011;23500;53.268;8.308;2023-04-25T08:59:26;8.52;;;3.35;;
37657;SDS011;23500;53.268;8.308;2023-04-25T09:01:53;9.95;;;3.75;;
37657;SDS011;23500;53.268;8.308;2023-04-25T09:04:19;7.85;;;3.55;;
37657;SDS011;23500;53.268;8.308;2023-04-25T09:06:45;7.63;;;3.90;;
37657;SDS011;23500;53.268;8.308;2023-04-25T09:09:11;7.53;;;3.30;;
37657;SDS011;23500;53.268;8.308;2023-04-25T09:11:37;8.75;;;3.45;;
37657;SDS011;23500;53.268;8.308;2023-04-25T09:14:13;8.45;;;3.97;;
37657;SDS011;23500;53.268;8.308;2023-04-25T09:19:25;7.75;;;3.80;;
37657;SDS011;23500;53.268;8.308;2023-04-25T09:21:53;8.13;;;3.75;;
37657;SDS011;23500;53.268;8.308;2023-04-25T09:27:09;8.13;;;3.58;;
37657;SDS011;23500;53.268;8.308;2023-04-25T09:29:39;6.03;;;3.10;;
37657;SDS011;23500;53.268;8.308;2023-04-25T09:34:40;6.20;;;3.40;;
37657;SDS011;23500;53.268;8.308;2023-04-25T09:37:10;8.10;;;3.63;;
37657;SDS011;23500;53.268;8.308;2023-04-25T09:39:37;7.75;;;3.50;;
37657;SDS011;23500;53.268;8.308;2023-04-25T09:42:04;7.03;;;3.30;;
37657;SDS011;23500;53.268;8.308;2023-04-25T09:44:30;7.07;;;3.45;;
37657;SDS011;23500;53.268;8.308;2023-04-25T09:46:56;5.63;;;3.50;;
37657;SDS011;23500;53.268;8.308;2023-04-25T09:49:22;6.63;;;3.13;;
37657;SDS011;23500;53.268;8.308;2023-04-25T09:51:57;8.68;;;3.85;;
37657;SDS011;23500;53.268;8.308;2023-04-25T09:54:24;7.53;;;3.13;;
37657;SDS011;23500;53.268;8.308;2023-04-25T09:56:50;4.47;;;2.40;;
37657;SDS011;23500;53.268;8.308;2023-04-25T09:59:19;6.65;;;2.90;;
37657;SDS011;23500;53.268;8.308;2023-04-25T10:01:46;5.85;;;2.60;;
37657;SDS011;23500;53.268;8.308;2023-04-25T10:04:14;5.95;;;2.88;;
37657;SDS011;23500;53.268;8.308;2023-04-25T10:06:49;7.15;;;2.90;;
37657;SDS011;23500;53.268;8.308;2023-04-25T10:09:18;7.20;;;2.92;;
37657;SDS011;23500;53.268;8.308;2023-04-25T10:11:46;5.93;;;2.70;;
37657;SDS011;23500;53.268;8.308;2023-04-25T10:14:16;5.53;;;2.78;;
37657;SDS011;23500;53.268;8.308;2023-04-25T10:16:43;5.90;;;2.60;;
37657;SDS011;23500;53.268;8.308;2023-04-25T10:19:10;6.60;;;2.58;;
37657;SDS011;23500;53.268;8.308;2023-04-25T10:21:36;5.90;;;2.47;;
37657;SDS011;23500;53.268;8.308;2023-04-25T10:24:10;6.93;;;2.47;;
37657;SDS011;23500;53.268;8.308;2023-04-25T10:26:36;5.03;;;2.38;;
37657;SDS011;23500;53.268;8.308;2023-04-25T10:29:04;5.28;;;2.63;;
37657;SDS011;23500;53.268;8.308;2023-04-25T10:31:30;5.82;;;2.25;;
37657;SDS011;23500;53.268;8.308;2023-04-25T10:33:56;6.10;;;2.65;;
37657;SDS011;23500;53.268;8.308;2023-04-25T10:36:22;6.28;;;2.30;;
37657;SDS011;23500;53.268;8.308;2023-04-25T10:38:52;6.10;;;2.50;;
37657;SDS011;23500;53.268;8.308;2023-04-25T10:41:19;5.40;;;2.28;;
37657;SDS011;23500;53.268;8.308;2023-04-25T10:43:46;6.90;;;2.53;;
37657;SDS011;23500;53.268;8.308;2023-04-25T10:46:22;6.82;;;2.72;;
37657;SDS011;23500;53.268;8.308;2023-04-25T10:48:53;6.75;;;2.55;;
37657;SDS011;23500;53.268;8.308;2023-04-25T10:51:24;5.30;;;2.00;;
37657;SDS011;23500;53.268;8.308;2023-04-25T10:56:21;4.32;;;2.13;;
37657;SDS011;23500;53.268;8.308;2023-04-25T10:58:48;6.38;;;2.22;;
37657;SDS011;23500;53.268;8.308;2023-04-25T11:01:14;5.68;;;2.45;;
37657;SDS011;23500;53.268;8.308;2023-04-25T11:03:44;4.97;;;2.47;;
37657;SDS011;23500;53.268;8.308;2023-04-25T11:06:23;4.32;;;2.53;;
37657;SDS011;23500;53.268;8.308;2023-04-25T11:08:54;4.00;;;2.38;;
37657;SDS011;23500;53.268;8.308;2023-04-25T11:11:20;3.92;;;2.17;;
37657;SDS011;23500;53.268;8.308;2023-04-25T11:13:49;4.35;;;2.30;;
37657;SDS011;23500;53.268;8.308;2023-04-25T11:16:15;4.22;;;2.25;;
37657;SDS011;23500;53.268;8.308;2023-04-25T11:18:42;3.67;;;2.17;;
37657;SDS011;23500;53.268;8.308;2023-04-25T11:21:08;6.07;;;2.53;;
37657;SDS011;23500;53.268;8.308;2023-04-25T11:23:34;4.15;;;2.03;;
37657;SDS011;23500;53.268;8.308;2023-04-25T11:26:01;4.47;;;2.25;;
37657;SDS011;23500;53.268;8.308;2023-04-25T11:28:28;5.00;;;2.17;;
37657;SDS011;23500;53.268;8.308;2023-04-25T11:30:53;4.20;;;2.25;;
37657;SDS011;23500;53.268;8.308;2023-04-25T11:33:23;4.95;;;2.15;;
37657;SDS011;23500;53.268;8.308;2023-04-25T11:35:50;5.00;;;2.30;;
37657;SDS011;23500;53.268;8.308;2023-04-25T11:38:17;4.63;;;2.20;;
37657;SDS011;23500;53.268;8.308;2023-04-25T11:40:43;4.28;;;2.10;;
37657;SDS011;23500;53.268;8.308;2023-04-25T11:43:09;5.20;;;2.30;;
37657;SDS011;23500;53.268;8.308;2023-04-25T11:45:36;4.97;;;2.20;;
37657;SDS011;23500;53.268;8.308;2023-04-25T11:48:02;4.88;;;2.28;;
37657;SDS011;23500;53.268;8.308;2023-04-25T11:50:28;4.30;;;2.10;;
37657;SDS011;23500;53.268;8.308;2023-04-25T11:52:55;4.40;;;2.22;;
37657;SDS011;23500;53.268;8.308;2023-04-25T11:55:21;4.03;;;2.40;;
37657;SDS011;23500;53.268;8.308;2023-04-25T11:57:48;4.35;;;2.22;;
37657;SDS011;23500;53.268;8.308;2023-04-25T12:00:20;2.78;;;1.80;;
37657;SDS011;23500;53.268;8.308;2023-04-25T12:02:50;7.43;;;1.98;;
37657;SDS011;23500;53.268;8.308;2023-04-25T12:05:18;3.85;;;1.70;;
37657;SDS011;23500;53.268;8.308;2023-04-25T12:07:45;3.85;;;2.08;;
37657;SDS011;23500;53.268;8.308;2023-04-25T12:10:12;3.85;;;1.70;;
37657;SDS011;23500;53.268;8.308;2023-04-25T12:12:43;3.33;;;1.77;;
37657;SDS011;23500;53.268;8.308;2023-04-25T12:15:13;3.53;;;1.95;;
37657;SDS011;23500;53.268;8.308;2023-04-25T12:17:44;2.63;;;1.70;;
37657;SDS011;23500;53.268;8.308;2023-04-25T12:20:14;4.72;;;2.05;;
37657;SDS011;23500;53.268;8.308;2023-04-25T12:22:45;3.17;;;1.73;;
37657;SDS011;23500;53.268;8.308;2023-04-25T12:25:20;3.17;;;1.70;;
37657;SDS011;23500;53.268;8.308;2023-04-25T12:33:24;3.20;;;1.80;;
37657;SDS011;23500;53.268;8.308;2023-04-25T12:35:51;4.03;;;1.80;;
37657;SDS011;23500;53.268;8.308;2023-04-25T12:38:24;5.38;;;2.05;;
37657;SDS011;23500;53.268;8.308;2023-04-25T12:40:55;3.75;;;1.60;;
37657;SDS011;23500;53.268;8.308;2023-04-25T12:43:21;4.03;;;2.00;;
37657;SDS011;23500;53.268;8.308;2023-04-25T12:45:48;3.88;;;1.98;;
37657;SDS011;23500;53.268;8.308;2023-04-25T12:48:15;2.95;;;1.70;;
37657;SDS011;23500;53.268;8.308;2023-04-25T12:50:41;3.08;;;1.60;;
37657;SDS011;23500;53.268;8.308;2023-04-25T12:53:07;2.92;;;1.80;;
37657;SDS011;23500;53.268;8.308;2023-04-25T12:55:33;3.45;;;1.70;;
37657;SDS011;23500;53.268;8.308;2023-04-25T12:57:58;4.07;;;1.70;;
37657;SDS011;23500;53.268;8.308;2023-04-25T13:00:24;6.30;;;1.83;;
37657;SDS011;23500;53.268;8.308;2023-04-25T13:02:51;4.25;;;1.60;;
37657;SDS011;23500;53.268;8.308;2023-04-25T13:05:17;5.38;;;1.60;;
37657;SDS011;23500;53.268;8.308;2023-04-25T13:07:42;4.82;;;1.95;;
37657;SDS011;23500;53.268;8.308;2023-04-25T13:10:08;6.55;;;1.65;;
37657;SDS011;23500;53.268;8.308;2023-04-25T13:12:34;5.05;;;2.00;;
37657;SDS011;23500;53.268;8.308;2023-04-25T13:15:00;4.95;;;1.83;;
37657;SDS011;23500;53.268;8.308;2023-04-25T13:17:25;4.05;;;1.70;;
37657;SDS011;23500;53.268;8.308;2023-04-25T13:19:51;6.55;;;1.77;;
37657;SDS011;23500;53.268;8.308;2023-04-25T13:22:17;4.20;;;1.90;;
37657;SDS011;23500;53.268;8.308;2023-04-25T13:24:46;6.30;;;1.80;;
37657;SDS011;23500;53.268;8.308;2023-04-25T13:27:11;4.75;;;1.77;;
37657;SDS011;23500;53.268;8.308;2023-04-25T13:29:38;9.52;;;1.90;;
37657;SDS011;23500;53.268;8.308;2023-04-25T13:32:05;3.65;;;1.75;;
37657;SDS011;23500;53.268;8.308;2023-04-25T13:34:31;3.95;;;1.80;;
37657;SDS011;23500;53.268;8.308;2023-04-25T13:36:57;5.65;;;1.73;;
37657;SDS011;23500;53.268;8.308;2023-04-25T13:39:24;6.13;;;1.92;;
37657;SDS011;23500;53.268;8.308;2023-04-25T13:41:49;4.55;;;1.63;;
37657;SDS011;23500;53.268;8.308;2023-04-25T13:44:15;8.73;;;1.92;;
37657;SDS011;23500;53.268;8.308;2023-04-25T13:46:41;6.30;;;1.80;;
37657;SDS011;23500;53.268;8.308;2023-04-25T13:49:07;3.42;;;1.48;;
37657;SDS011;23500;53.268;8.308;2023-04-25T13:51:33;7.82;;;2.10;;
37657;SDS011;23500;53.268;8.308;2023-04-25T13:53:59;4.25;;;1.95;;
37657;SDS011;23500;53.268;8.308;2023-04-25T13:56:24;6.93;;;1.75;;
37657;SDS011;23500;53.268;8.308;2023-04-25T13:58:50;5.53;;;1.88;;
37657;SDS011;23500;53.268;8.308;2023-04-25T14:01:16;5.75;;;1.85;;
37657;SDS011;23500;53.268;8.308;2023-04-25T14:03:42;3.80;;;1.85;;
37657;SDS011;23500;53.268;8.308;2023-04-25T14:06:08;4.80;;;1.83;;
37657;SDS011;23500;53.268;8.308;2023-04-25T14:08:34;6.55;;;1.83;;
37657;SDS011;23500;53.268;8.308;2023-04-25T14:11:00;4.78;;;1.85;;
37657;SDS011;23500;53.268;8.308;2023-04-25T14:13:26;3.33;;;1.42;;
37657;SDS011;23500;53.268;8.308;2023-04-25T14:15:51;3.65;;;1.60;;
37657;SDS011;23500;53.268;8.308;2023-04-25T14:18:17;5.25;;;1.77;;
37657;SDS011;23500;53.268;8.308;2023-04-25T14:20:44;8.55;;;1.83;;
37657;SDS011;23500;53.268;8.308;2023-04-25T14:23:10;4.70;;;1.73;;
37657;SDS011;23500;53.268;8.308;2023-04-25T14:25:36;5.88;;;1.83;;
37657;SDS011;23500;53.268;8.308;2023-04-25T14:28:02;6.32;;;1.70;;
37657;SDS011;23500;53.268;8.308;2023-04-25T14:30:27;6.20;;;1.70;;
37657;SDS011;23500;53.268;8.308;2023-04-25T14:32:53;4.68;;;1.83;;
37657;SDS011;23500;53.268;8.308;2023-04-25T14:35:19;6.45;;;1.90;;
37657;SDS011;23500;53.268;8.308;2023-04-25T14:37:44;3.67;;;1.98;;
37657;SDS011;23500;53.268;8.308;2023-04-25T14:40:10;5.15;;;1.75;;
37657;SDS011;23500;53.268;8.308;2023-04-25T14:42:38;4.57;;;1.73;;
37657;SDS011;23500;53.268;8.308;2023-04-25T14:45:05;3.88;;;1.73;;
37657;SDS011;23500;53.268;8.308;2023-04-25T14:47:35;4.25;;;1.80;;
37657;SDS011;23500;53.268;8.308;2023-04-25T14:50:02;6.50;;;1.80;;
37657;SDS011;23500;53.268;8.308;2023-04-25T14:52:27;3.55;;;1.80;;
37657;SDS011;23500;53.268;8.308;2023-04-25T14:54:53;3.35;;;1.65;;
37657;SDS011;23500;53.268;8.308;2023-04-25T14:57:19;3.17;;;1.50;;